Terminal Aerodrome Forecast
Issued by NWS Atlanta, GA

Home | Current Version | Previous Version | Text Only | Print | Product List | Glossary On
Versions: 1 2 3 4 5 6 7 8 9 10 11 12 13 14 15 16 17 18 19 20 21 22 23 24 25 26 27 28 29 30 31 32 33
477
FTUS42 KFFC 231943 AAA
TAFAHN
TAF AMD
KAHN 231943Z 2320/2418 21008KT P6SM SCT035
     FM240600 23008KT P6SM VCSH BKN030
     FM241000 24006KT 6SM SHRA BKN006
     FM241500 26007KT P6SM VCSH BKN010=

USA.gov is the U.S. government's official web portal to all federal, state and local government web resources and services.